Ocean Navigator — WSC2552 — position and weather

sailwx.info

Track history (hours):
 
Tides and Currents Weather Stations Pressure Air Temp Water Temp Dewpoint Dewpoint Depression Visibility Wind Speed Wind Dir Waves Ship Positions

Ocean Navigator

More information available from US FCC via Universal Licensing System and Coast Guard Vessel Documentation Center.

Last reported at 2014-Sep-21 19:22 UTC. Time now 2014-Sep-23 20:29 UTC.
Position N 51°34' W 127°53'.

MMSI: 366358000.

Date/timePositionNaut miles runAvg speedWind from/ knotsBaromVisibWave heightAir tempDewpointWater temp
2014-Sep-21 19:22N 51°34' W 127°53'8 9.2
2014-Sep-21 18:30N 51°26' W 127°52'8 8.7
2014-Sep-21 17:33N 51°18' W 127°53'8 8.1
2014-Sep-21 16:33N 51°10' W 127°52'9 8.9
2014-Sep-21 15:33N 51°04' W 127°42'9 9.1
2014-Sep-21 14:34N 50°58' W 127°31'10 9.8
2014-Sep-21 13:34N 50°52' W 127°19'10 9.9
2014-Sep-21 12:32N 50°45' W 127°07'10 9.9
2014-Sep-21 11:28N 50°40' W 126°52'9 9.9
2014-Sep-21 10:32N 50°34' W 126°41'9 9.2
2014-Sep-21 09:30N 50°30' W 126°28'11 9.8
2014-Sep-21 08:23N 50°29' W 126°10'26 8.9
2014-Sep-21 05:25N 50°21' W 125°31'7 8.6
2014-Sep-21 04:33N 50°16' W 125°23'21 9.9
2014-Sep-21 02:25N 49°57' W 125°07'10 9.0
2014-Sep-21 01:15N 49°50' W 124°55'7 9.6
2014-Sep-21 00:32N 49°46' W 124°47'9 9.5
2014-Sep-20 23:33N 49°40' W 124°35'9 8.6
2014-Sep-20 22:32N 49°35' W 124°25'8 8.5
2014-Sep-20 21:34N 49°31' W 124°13'9 8.9
2014-Sep-20 20:33N 49°26' W 124°02'9 9.1
2014-Sep-20 19:34N 49°20' W 123°51'9 9.0
2014-Sep-20 18:33N 49°15' W 123°40'9 8.9
2014-Sep-20 17:33N 49°09' W 123°30'9 8.7
2014-Sep-20 16:33N 49°04' W 123°20'9 8.6
2014-Sep-20 15:34N 48°58' W 123°10'8 8.3
2014-Sep-20 14:34N 48°52' W 123°00'8 8.0
2014-Sep-20 13:34N 48°47' W 122°51'8 7.7
2014-Sep-20 12:33N 48°42' W 122°43'7 7.2
2014-Sep-20 11:33N 48°35' W 122°45'8 8.2
2014-Sep-20 10:33N 48°26' W 122°44'13 8.9
2014-Sep-20 09:05N 48°14' W 122°48'15 8.1
2014-Sep-20 07:14N 48°01' W 122°36'6 8.4
2014-Sep-20 06:34N 47°57' W 122°31'9 9.1
2014-Sep-20 05:33N 47°48' W 122°26'9 9.2
2014-Sep-20 04:33N 47°39' W 122°27'6 5.9
2014-Sep-20 03:33N 47°34' W 122°21'1 0.8
2014-Sep-20 02:05N 47°33' W 122°21'0 0.0
2014-Sep-20 00:08N 47°33' W 122°21'0 0.0
2014-Sep-19 23:33N 47°33' W 122°21'2 1.6
2014-Sep-19 22:34N 47°35' W 122°22'6 5.5
2014-Sep-19 21:33N 47°40' W 122°24'1 1.4
2014-Sep-19 20:33N 47°39' W 122°22'1 0.0
2014-Sep-17 19:34N 47°40' W 122°23'2 1.7
2014-Sep-17 18:34N 47°41' W 122°25'6 5.7
2014-Sep-17 17:34N 47°35' W 122°22'1 0.8
2014-Sep-17 16:33N 47°36' W 122°23'8 7.5
2014-Sep-17 15:33N 47°43' W 122°28'9 9.2
2014-Sep-17 14:33N 47°52' W 122°29'9 8.5
2014-Sep-17 13:27N 47°60' W 122°37'17 7.1
2014-Sep-17 11:04N 48°15' W 122°49'610.1
2014-Sep-17 10:27N 48°21' W 122°47'1010.9
2014-Sep-17 09:33N 48°30' W 122°45'1110.8
2014-Sep-17 08:33N 48°41' W 122°44'9 9.5
2014-Sep-17 07:33N 48°48' W 122°54'10 9.6
2014-Sep-17 06:33N 48°53' W 123°06'9 9.2
2014-Sep-17 05:33N 48°59' W 123°17'9 8.9
2014-Sep-17 04:33N 49°05' W 123°27'9 8.8
2014-Sep-17 03:33N 49°11' W 123°37'8 8.3
2014-Sep-17 02:33N 49°16' W 123°46'9 8.9
2014-Sep-17 01:33N 49°22' W 123°57'9 9.1
2014-Sep-17 00:33N 49°28' W 124°07'9 9.0
2014-Sep-16 23:33N 49°33' W 124°19'9 9.0
2014-Sep-16 22:32N 49°37' W 124°31'9 9.4
2014-Sep-16 21:32N 49°44' W 124°42'9 9.3
2014-Sep-16 20:33N 49°49' W 124°53'9 8.5
2014-Sep-16 19:33N 49°54' W 125°04'1110.1
2014-Sep-16 18:29N 50°03' W 125°14'9 9.8
2014-Sep-16 17:33N 50°11' W 125°22'5 5.3
2014-Sep-16 16:32N 50°16' W 125°24'1 0.7
2014-Sep-16 15:33N 50°16' W 125°23'7 6.7
2014-Sep-16 14:33N 50°21' W 125°30'28 8.7
2014-Sep-16 11:23N 50°28' W 126°11'8 8.8
2014-Sep-16 10:32N 50°29' W 126°23'14 7.1
2014-Sep-16 08:32N 50°36' W 126°43'9 8.6
2014-Sep-16 07:31N 50°41' W 126°54'10 8.8
2014-Sep-16 06:24N 50°45' W 127°08'8 9.1
2014-Sep-16 05:31N 50°50' W 127°18'8 8.1
2014-Sep-16 04:33N 50°56' W 127°27'9 8.7
2014-Sep-16 03:33N 51°02' W 127°37'9 9.0
2014-Sep-16 02:33N 51°08' W 127°48'10 9.2
2014-Sep-16 01:30N 51°17' W 127°54'9 9.4
2014-Sep-16 00:33N 51°24' W 128°02'10 9.5
2014-Sep-15 23:33N 51°29' W 128°15'9 8.9
2014-Sep-15 22:32N 51°37' W 128°22'171 9.0
2014-Sep-15 03:29N 54°10' W 130°27'9 9.5
2014-Sep-15 02:33N 54°18' W 130°35'  
2014-Sep-12 14:21N 58°18' W 135°51'1310.8
2014-Sep-12 13:06N 58°18' W 135°26'2 4.5
2014-Sep-12 12:33N 58°21' W 135°26'  
Track history (hours):
 
Tides and Currents Weather Stations Pressure Air Temp Water Temp Dewpoint Dewpoint Depression Visibility Wind Speed Wind Dir Waves Ship Positions

Ocean Navigator

More information available from US FCC via Universal Licensing System and Coast Guard Vessel Documentation Center.

Last reported at 2014-Sep-21 19:22 UTC. Time now 2014-Sep-23 20:29 UTC.
Position N 51°34' W 127°53'.

MMSI: 366358000.

Date/timePositionNaut miles runAvg speedWind from/ knotsBaromVisibWave heightAir tempDewpointWater temp
2014-Sep-21 19:22N 51°34' W 127°53'8 9.2
2014-Sep-21 18:30N 51°26' W 127°52'8 8.7
2014-Sep-21 17:33N 51°18' W 127°53'8 8.1
2014-Sep-21 16:33N 51°10' W 127°52'9 8.9
2014-Sep-21 15:33N 51°04' W 127°42'9 9.1
2014-Sep-21 14:34N 50°58' W 127°31'10 9.8
2014-Sep-21 13:34N 50°52' W 127°19'10 9.9
2014-Sep-21 12:32N 50°45' W 127°07'10 9.9
2014-Sep-21 11:28N 50°40' W 126°52'9 9.9
2014-Sep-21 10:32N 50°34' W 126°41'9 9.2
2014-Sep-21 09:30N 50°30' W 126°28'11 9.8
2014-Sep-21 08:23N 50°29' W 126°10'26 8.9
2014-Sep-21 05:25N 50°21' W 125°31'7 8.6
2014-Sep-21 04:33N 50°16' W 125°23'21 9.9
2014-Sep-21 02:25N 49°57' W 125°07'10 9.0
2014-Sep-21 01:15N 49°50' W 124°55'7 9.6
2014-Sep-21 00:32N 49°46' W 124°47'9 9.5
2014-Sep-20 23:33N 49°40' W 124°35'9 8.6
2014-Sep-20 22:32N 49°35' W 124°25'8 8.5
2014-Sep-20 21:34N 49°31' W 124°13'9 8.9
2014-Sep-20 20:33N 49°26' W 124°02'9 9.1
2014-Sep-20 19:34N 49°20' W 123°51'9 9.0
2014-Sep-20 18:33N 49°15' W 123°40'9 8.9
2014-Sep-20 17:33N 49°09' W 123°30'9 8.7
2014-Sep-20 16:33N 49°04' W 123°20'9 8.6
2014-Sep-20 15:34N 48°58' W 123°10'8 8.3
2014-Sep-20 14:34N 48°52' W 123°00'8 8.0
2014-Sep-20 13:34N 48°47' W 122°51'8 7.7
2014-Sep-20 12:33N 48°42' W 122°43'7 7.2
2014-Sep-20 11:33N 48°35' W 122°45'8 8.2
2014-Sep-20 10:33N 48°26' W 122°44'13 8.9
2014-Sep-20 09:05N 48°14' W 122°48'15 8.1
2014-Sep-20 07:14N 48°01' W 122°36'6 8.4
2014-Sep-20 06:34N 47°57' W 122°31'9 9.1
2014-Sep-20 05:33N 47°48' W 122°26'9 9.2
2014-Sep-20 04:33N 47°39' W 122°27'6 5.9
2014-Sep-20 03:33N 47°34' W 122°21'1 0.8
2014-Sep-20 02:05N 47°33' W 122°21'0 0.0
2014-Sep-20 00:08N 47°33' W 122°21'0 0.0
2014-Sep-19 23:33N 47°33' W 122°21'2 1.6
2014-Sep-19 22:34N 47°35' W 122°22'6 5.5
2014-Sep-19 21:33N 47°40' W 122°24'1 1.4
2014-Sep-19 20:33N 47°39' W 122°22'1 0.0
2014-Sep-17 19:34N 47°40' W 122°23'2 1.7
2014-Sep-17 18:34N 47°41' W 122°25'6 5.7
2014-Sep-17 17:34N 47°35' W 122°22'1 0.8
2014-Sep-17 16:33N 47°36' W 122°23'8 7.5
2014-Sep-17 15:33N 47°43' W 122°28'9 9.2
2014-Sep-17 14:33N 47°52' W 122°29'9 8.5
2014-Sep-17 13:27N 47°60' W 122°37'17 7.1
2014-Sep-17 11:04N 48°15' W 122°49'610.1
2014-Sep-17 10:27N 48°21' W 122°47'1010.9
2014-Sep-17 09:33N 48°30' W 122°45'1110.8
2014-Sep-17 08:33N 48°41' W 122°44'9 9.5
2014-Sep-17 07:33N 48°48' W 122°54'10 9.6
2014-Sep-17 06:33N 48°53' W 123°06'9 9.2
2014-Sep-17 05:33N 48°59' W 123°17'9 8.9
2014-Sep-17 04:33N 49°05' W 123°27'9 8.8
2014-Sep-17 03:33N 49°11' W 123°37'8 8.3
2014-Sep-17 02:33N 49°16' W 123°46'9 8.9
2014-Sep-17 01:33N 49°22' W 123°57'9 9.1
2014-Sep-17 00:33N 49°28' W 124°07'9 9.0
2014-Sep-16 23:33N 49°33' W 124°19'9 9.0
2014-Sep-16 22:32N 49°37' W 124°31'9 9.4
2014-Sep-16 21:32N 49°44' W 124°42'9 9.3
2014-Sep-16 20:33N 49°49' W 124°53'9 8.5
2014-Sep-16 19:33N 49°54' W 125°04'1110.1
2014-Sep-16 18:29N 50°03' W 125°14'9 9.8
2014-Sep-16 17:33N 50°11' W 125°22'5 5.3
2014-Sep-16 16:32N 50°16' W 125°24'1 0.7
2014-Sep-16 15:33N 50°16' W 125°23'7 6.7
2014-Sep-16 14:33N 50°21' W 125°30'28 8.7
2014-Sep-16 11:23N 50°28' W 126°11'8 8.8
2014-Sep-16 10:32N 50°29' W 126°23'14 7.1
2014-Sep-16 08:32N 50°36' W 126°43'9 8.6
2014-Sep-16 07:31N 50°41' W 126°54'10 8.8
2014-Sep-16 06:24N 50°45' W 127°08'8 9.1
2014-Sep-16 05:31N 50°50' W 127°18'8 8.1
2014-Sep-16 04:33N 50°56' W 127°27'9 8.7
2014-Sep-16 03:33N 51°02' W 127°37'9 9.0
2014-Sep-16 02:33N 51°08' W 127°48'10 9.2
2014-Sep-16 01:30N 51°17' W 127°54'9 9.4
2014-Sep-16 00:33N 51°24' W 128°02'10 9.5
2014-Sep-15 23:33N 51°29' W 128°15'9 8.9
2014-Sep-15 22:32N 51°37' W 128°22'171 9.0
2014-Sep-15 03:29N 54°10' W 130°27'9 9.5
2014-Sep-15 02:33N 54°18' W 130°35'  
2014-Sep-12 14:21N 58°18' W 135°51'1310.8
2014-Sep-12 13:06N 58°18' W 135°26'2 4.5
2014-Sep-12 12:33N 58°21' W 135°26'  

Dump ship's entire track history